Middleton, WI (53562)

9:34 AM CDT on July 28, 2016 (GMT -0500)
Middleton | | Change Station

Elev 928 ft 43.12 °N, 89.53 °W | Updated 19 minutes ago

Overcast
Overcast
72 °F
Feels Like 72 °F
N
8
Wind Variable Wind from ENE

Today
High -- | Low -- °F
--% Chance of Precip.
Yesterday
High -- | Low -- °F
Precip. -- in
Pressure 29.94 in
Visibility 10.0 miles
Clouds Overcast 800 ft
Dew Point 68 °F
Humidity 86%
Rainfall 0.00 in
Snow Depth Not available.
5:45 AM 8:23 PM
Waning Crescent, 31% visible
METAR KC29 281415Z AUTO 07007KT 10SM OVC008 23/20 A2994 RMK AO1 T02250201
Pressure 29.94 in
Visibility 10.0 miles
Clouds Overcast 800 ft
Dew Point 68 °F
Humidity 86%
Rainfall 0.00 in
Snow Depth Not available.
5:45 AM 8:23 PM
Waning Crescent, 31% visible
METAR KC29 281415Z AUTO 07007KT 10SM OVC008 23/20 A2994 RMK AO1 T02250201

10-Day Weather Forecast

Almanac

Astronomy

Jul. 28, 2016 Rise Set
Actual Time
Civil Twilight
Nautical Twilight
Astronomical Twilight
Moon
Length of Visible Light
Length of Day
Tomorrow will be .
, % of the Moon is Illuminated

Today's Extremes

State Highs State Lows

Community

WunderPhotos

Upload Photos

1,928,117 photos uploaded!

WunderBlog® & News

Nearby

Air Quality

  Air Quality AQ Index Pollutant
Not available.

Snow Depth

Station Depth Elevation

Earthquake Activity

City Distance Mag. Time & Date
Minimum magnitude displayed is 2.5.

Coastal Water Temperatures

Place Temperature

Stations

Nearby Weather Stations

Station Location Temp. Windchill Dew Point Humidity Wind Precip. Elev Updated Type
                   

Watches & Warnings

There are currently no watches in effect.